Thunderstorms From: 23-05-2018 15:04 Until: 24-05-2018 15:00 warning for: Thunderstorms Level: Yellow info button

Although rather usual in this region, locally or potentially dangerous phenomena are expected. (such as local winds, summer thunderstorms, rising streams or high waves) Be aware and pay attention to the latest weather updates, especially if you carry out activities exposed to weather or close to a stream or shoreline. 


Meteo18 Weather Cam more information Meteo18 Weather Cam


warning for Thunderstorms more information blitzortung!


Rain radar more information rain snow radar


Visit our other weather sites:

Template documentation
and downloads

And another site



Weather Underground History page Text

Daily Summary for December 11, 2017 Units:  English    Metric   Both
« Previous Day
Next Day »
Daily Weekly Monthly Yearly Custom
  High: Low: Average:
Temperature: TemperatureC °F 3.5 °F 7.5 °F
Dew Point: DewpointC °F -0.2 °F 4.4 °F
Humidity: Humidity % 68 % 80 %
Wind Speed: WindSpeedKMH mph 1.6 mph 20.9 mph
Wind Gust: WindSpeedGustKMH mph - -
Wind:- - SW
Pressure: PressurehPa in 974.8 in -
Precipitation: 4.3 in    
Historical Graphs
 
 
Tabular Data for December 11, 2017
Time Temperature Dew Point Pressure Wind Wind Speed Wind Gust Humidity Rainfall Rate (Hourly)
TemperatureC °F DewpointC °F PressurehPa in Calm     Humidity % HourlyPrecipMM in
00:02 7.4 °F 6.2 °F 985.0 in SSE 11.3 mph 17.7 mph 92 % 0.0 in
00:17 7.2 °F 6.0 °F 984.6 in South 8.0 mph 19.3 mph 92 % 0.0 in
00:22 7.2 °F 6.0 °F 984.3 in SSE 8.0 mph 19.3 mph 92 % 0.0 in
00:27 7.2 °F 6.1 °F 984.3 in SSE 4.8 mph 14.5 mph 93 % 0.0 in
00:32 7.2 °F 6.1 °F 984.6 in SE 4.8 mph 14.5 mph 93 % 0.0 in
00:37 7.2 °F 6.1 °F 985.0 in South 6.4 mph 12.9 mph 93 % 0.0 in
00:47 7.2 °F 6.1 °F 984.3 in SE 1.6 mph 12.9 mph 93 % 0.0 in
00:52 7.2 °F 6.1 °F 984.0 in SE 1.6 mph 16.1 mph 93 % 0.0 in
00:57 7.2 °F 6.1 °F 983.6 in SE 4.8 mph 16.1 mph 93 % 0.0 in
01:02 7.2 °F 6.3 °F 983.6 in SE 4.8 mph 16.1 mph 94 % 0.0 in
01:12 7.2 °F 6.3 °F 983.3 in SE 4.8 mph 12.9 mph 94 % 0.0 in
01:22 7.2 °F 6.3 °F 983.3 in ESE 4.8 mph 14.5 mph 94 % 0.0 in
01:27 7.2 °F 6.3 °F 983.0 in SSE 8.0 mph 16.1 mph 94 % 0.0 in
01:32 7.3 °F 6.4 °F 983.0 in SE 6.4 mph 19.3 mph 94 % 0.0 in
01:37 7.3 °F 6.4 °F 982.6 in SSE 3.2 mph 19.3 mph 94 % 0.0 in
01:42 7.3 °F 6.4 °F 982.6 in SE 6.4 mph 19.3 mph 94 % 0.3 in
01:47 7.3 °F 6.4 °F 982.3 in SSE 14.5 mph 16.1 mph 94 % 0.3 in
01:52 7.4 °F 6.5 °F 982.3 in SSE 9.7 mph 20.9 mph 94 % 0.3 in
01:57 7.3 °F 6.2 °F 981.9 in SSE 4.8 mph 24.1 mph 93 % 0.5 in
02:02 7.3 °F 6.4 °F 981.9 in SSE 3.2 mph 24.1 mph 94 % 0.5 in
02:07 7.3 °F 6.4 °F 981.9 in SSE 1.6 mph 16.1 mph 94 % 0.5 in
02:12 7.3 °F 6.4 °F 981.6 in SE 6.4 mph 11.3 mph 94 % 0.5 in
02:17 7.3 °F 6.4 °F 981.6 in SE 4.8 mph 11.3 mph 94 % 0.8 in
02:22 7.3 °F 6.4 °F 981.3 in SSE 3.2 mph 11.3 mph 94 % 0.8 in
02:27 7.3 °F 6.4 °F 980.9 in SSE 6.4 mph 12.9 mph 94 % 1.0 in
02:32 7.3 °F 6.4 °F 980.9 in SSE 11.3 mph 12.9 mph 94 % 1.3 in
02:37 7.3 °F 6.4 °F 980.9 in ESE 4.8 mph 12.9 mph 94 % 1.5 in
02:42 7.4 °F 6.5 °F 980.6 in ESE 8.0 mph 14.5 mph 94 % 1.3 in
02:47 7.4 °F 6.5 °F 980.6 in ESE 6.4 mph 14.5 mph 94 % 1.5 in
02:57 7.4 °F 6.5 °F 980.2 in SE 6.4 mph 20.9 mph 94 % 1.5 in
03:02 7.4 °F 6.5 °F 980.2 in SSE 4.8 mph 20.9 mph 94 % 1.5 in
03:12 7.5 °F 6.6 °F 979.9 in SE 4.8 mph 19.3 mph 94 % 1.5 in
03:22 7.6 °F 6.7 °F 979.6 in SE 4.8 mph 16.1 mph 94 % 1.5 in
03:32 7.7 °F 6.8 °F 978.9 in SE 9.7 mph 17.7 mph 94 % 1.5 in
03:37 7.7 °F 6.8 °F 978.9 in South 4.8 mph 17.7 mph 94 % 1.5 in
03:42 7.7 °F 6.8 °F 978.6 in ESE 8.0 mph 16.1 mph 94 % 1.5 in
03:57 7.8 °F 6.9 °F 977.9 in SE 6.4 mph 20.9 mph 94 % 1.3 in
04:02 7.8 °F 6.7 °F 977.5 in SE 4.8 mph 16.1 mph 93 % 1.3 in
04:12 8.0 °F 6.9 °F 977.2 in SSE 11.3 mph 17.7 mph 93 % 1.0 in
04:17 8.1 °F 7.0 °F 977.2 in SE 9.7 mph 17.7 mph 93 % 0.8 in
04:22 8.1 °F 6.9 °F 976.9 in ESE 6.4 mph 24.1 mph 92 % 0.5 in
04:32 8.1 °F 7.0 °F 976.5 in SSE 6.4 mph 24.1 mph 93 % 0.5 in
04:37 8.1 °F 7.0 °F 976.5 in SSE 6.4 mph 22.5 mph 93 % 0.5 in
04:42 8.2 °F 7.1 °F 976.2 in SSE 9.7 mph 27.4 mph 93 % 0.5 in
04:47 8.2 °F 7.1 °F 976.2 in South 11.3 mph 27.4 mph 93 % 0.5 in
04:52 8.3 °F 7.2 °F 975.8 in SSE 19.3 mph 27.4 mph 93 % 0.5 in
05:02 8.6 °F 7.5 °F 975.8 in South 11.3 mph 22.5 mph 93 % 0.3 in
05:12 8.7 °F 7.5 °F 975.5 in SE 8.0 mph 24.1 mph 92 % 0.5 in
05:17 8.7 °F 7.5 °F 975.2 in SE 9.7 mph 24.1 mph 92 % 0.5 in
05:22 8.8 °F 7.6 °F 974.8 in South 8.0 mph 22.5 mph 92 % 0.5 in
05:27 8.8 °F 7.6 °F 974.8 in SSE 9.7 mph 25.7 mph 92 % 0.5 in
05:32 8.8 °F 7.6 °F 974.8 in SSE 8.0 mph 29.0 mph 92 % 0.5 in
05:42 9.1 °F 7.7 °F 974.8 in SSE 8.0 mph 29.0 mph 91 % 0.5 in
05:52 9.6 °F 8.0 °F 974.8 in South 16.1 mph 24.1 mph 90 % 0.5 in
05:57 9.7 °F 8.0 °F 974.8 in SE 14.5 mph 27.4 mph 89 % 0.3 in
06:07 9.6 °F 7.9 °F 975.2 in South 9.7 mph 27.4 mph 89 % 0.3 in
06:17 10.2 °F 8.1 °F 975.5 in SSW 12.9 mph 24.1 mph 87 % 0.0 in
06:27 11.3 °F 8.3 °F 975.5 in South 20.9 mph 27.4 mph 82 % 0.0 in
06:37 11.9 °F 8.4 °F 976.5 in SSW 37.0 mph 45.1 mph 79 % 0.0 in
06:42 11.8 °F 8.3 °F 976.5 in WSW 33.8 mph 53.1 mph 79 % 0.0 in
06:52 11.6 °F 7.7 °F 976.2 in SSW 16.1 mph 56.3 mph 77 % 0.0 in
06:57 11.4 °F 7.7 °F 976.2 in WSW 33.8 mph 56.3 mph 78 % 0.0 in
07:02 11.3 °F 7.4 °F 976.2 in SW 35.4 mph 56.3 mph 77 % 0.0 in
07:12 11.1 °F 7.4 °F 976.5 in SW 27.4 mph 51.5 mph 78 % 0.0 in
07:17 10.9 °F 7.2 °F 976.2 in SW 30.6 mph 51.5 mph 78 % 0.0 in
07:22 10.9 °F 6.8 °F 976.2 in SW 32.2 mph 51.5 mph 76 % 0.0 in
07:27 10.8 °F 6.7 °F 976.5 in SW 24.1 mph 46.7 mph 76 % 0.0 in
07:32 10.7 °F 6.4 °F 976.5 in SSW 22.5 mph 46.7 mph 75 % 0.0 in
07:57 10.3 °F 5.9 °F 976.5 in SW 19.3 mph 46.7 mph 74 % 0.0 in
08:02 10.2 °F 5.8 °F 976.9 in SW 25.7 mph 46.7 mph 74 % 0.0 in
08:17 10.1 °F 5.9 °F 976.9 in SW 27.4 mph 48.3 mph 75 % 0.0 in
08:42 9.7 °F 5.7 °F 977.2 in SW 27.4 mph 54.7 mph 76 % 0.0 in
08:47 9.7 °F 5.7 °F 976.9 in SSW 32.2 mph 54.7 mph 76 % 0.0 in
08:52 9.6 °F 5.8 °F 976.9 in SSW 41.8 mph 54.7 mph 77 % 0.0 in
08:57 9.6 °F 5.4 °F 977.2 in SSW 27.4 mph 53.1 mph 75 % 0.0 in
09:12 9.6 °F 5.4 °F 976.9 in SW 33.8 mph 48.3 mph 75 % 0.0 in
09:17 9.6 °F 5.4 °F 977.2 in SSW 35.4 mph 56.3 mph 75 % 0.0 in
09:27 9.5 °F 5.3 °F 977.2 in SSW 22.5 mph 56.3 mph 75 % 0.0 in
09:32 9.4 °F 5.2 °F 977.2 in SW 51.5 mph 53.1 mph 75 % 0.0 in
09:42 9.4 °F 5.4 °F 977.5 in SW 38.6 mph 53.1 mph 76 % 0.0 in
09:47 9.6 °F 5.4 °F 977.5 in SW 35.4 mph 51.5 mph 75 % 0.0 in
09:52 9.5 °F 5.1 °F 977.5 in SW 40.2 mph 56.3 mph 74 % 0.0 in
09:57 9.5 °F 5.3 °F 977.5 in SSW 35.4 mph 56.3 mph 75 % 0.0 in
10:02 9.5 °F 5.1 °F 977.5 in SW 35.4 mph 56.3 mph 74 % 0.0 in
10:12 9.6 °F 5.0 °F 977.9 in SW 32.2 mph 53.1 mph 73 % 0.0 in
10:17 9.5 °F 5.1 °F 977.9 in SW 40.2 mph 54.7 mph 74 % 0.0 in
10:32 9.5 °F 4.9 °F 977.5 in SSW 32.2 mph 61.1 mph 73 % 0.0 in
10:37 9.6 °F 4.8 °F 977.9 in SW 32.2 mph 56.3 mph 72 % 0.0 in
10:42 9.7 °F 5.1 °F 977.9 in SW 40.2 mph 56.3 mph 73 % 0.0 in
10:47 9.7 °F 4.7 °F 977.9 in SW 43.4 mph 56.3 mph 71 % 0.0 in
10:52 9.7 °F 4.5 °F 977.9 in SW 53.1 mph 56.3 mph 70 % 0.0 in
10:57 9.8 °F 4.4 °F 977.9 in SW 41.8 mph 59.5 mph 69 % 0.0 in
11:02 9.8 °F 4.6 °F 978.2 in SW 33.8 mph 59.5 mph 70 % 0.0 in
11:07 9.9 °F 4.5 °F 978.6 in SW 59.5 mph 67.6 mph 69 % 0.0 in
11:17 9.9 °F 4.7 °F 978.9 in SW 30.6 mph 69.2 mph 70 % 0.0 in
11:22 9.9 °F 4.7 °F 978.6 in SW 48.3 mph 69.2 mph 70 % 0.0 in
11:32 9.9 °F 5.1 °F 978.6 in SSW 37.0 mph 64.4 mph 72 % 0.0 in
11:37 10.0 °F 5.0 °F 978.6 in SW 37.0 mph 64.4 mph 71 % 0.0 in
11:42 10.0 °F 4.8 °F 978.6 in SW 32.2 mph 61.1 mph 70 % 0.0 in
11:47 10.1 °F 5.5 °F 978.6 in SSW 37.0 mph 61.1 mph 73 % 0.0 in
11:52 10.1 °F 5.1 °F 978.6 in SW 33.8 mph 62.8 mph 71 % 0.0 in
11:57 10.1 °F 4.9 °F 978.9 in WSW 35.4 mph 62.8 mph 70 % 0.0 in
12:02 10.1 °F 5.5 °F 978.9 in SW 27.4 mph 64.4 mph 73 % 0.0 in
12:12 9.9 °F 4.9 °F 978.6 in SW 30.6 mph 69.2 mph 71 % 0.0 in
12:17 9.9 °F 4.9 °F 978.9 in SW 33.8 mph 66.0 mph 71 % 0.0 in
12:32 10.1 °F 4.5 °F 978.9 in SW 27.4 mph 70.8 mph 68 % 0.0 in
12:37 10.1 °F 4.7 °F 978.6 in SW 54.7 mph 70.8 mph 69 % 0.0 in
12:42 10.0 °F 4.6 °F 978.2 in WSW 48.3 mph 67.6 mph 69 % 0.0 in
12:52 9.8 °F 4.4 °F 978.2 in South 27.4 mph 70.8 mph 69 % 0.0 in
13:12 9.7 °F 4.5 °F 977.9 in WSW 37.0 mph 54.7 mph 70 % 0.0 in
13:22 9.6 °F 4.4 °F 978.2 in SW 46.7 mph 57.9 mph 70 % 0.0 in
13:32 9.5 °F 4.1 °F 978.2 in West 22.5 mph 62.8 mph 69 % 0.0 in
13:42 9.4 °F 4.4 °F 978.6 in SW 24.1 mph 64.4 mph 71 % 0.0 in
13:47 9.3 °F 4.3 °F 978.2 in SW 30.6 mph 64.4 mph 71 % 0.0 in
13:52 9.2 °F 4.6 °F 978.6 in SW 25.7 mph 66.0 mph 73 % 0.0 in
13:57 9.1 °F 4.5 °F 978.6 in SW 38.6 mph 66.0 mph 73 % 0.0 in
14:02 9.0 °F 4.6 °F 978.9 in SW 29.0 mph 66.0 mph 74 % 0.0 in
14:07 8.9 °F 4.7 °F 978.9 in SW 41.8 mph 53.1 mph 75 % 0.0 in
14:12 8.9 °F 4.5 °F 978.9 in SW 35.4 mph 53.1 mph 74 % 0.0 in
14:17 8.9 °F 4.7 °F 978.9 in WSW 17.7 mph 57.9 mph 75 % 0.0 in
14:22 8.9 °F 4.7 °F 978.9 in WSW 27.4 mph 62.8 mph 75 % 0.0 in
14:32 8.9 °F 4.9 °F 979.2 in SSW 27.4 mph 61.1 mph 76 % 0.0 in
14:37 8.9 °F 4.9 °F 979.2 in WSW 33.8 mph 66.0 mph 76 % 0.0 in
14:42 8.9 °F 4.9 °F 979.2 in SW 45.1 mph 66.0 mph 76 % 0.0 in
14:47 8.9 °F 4.7 °F 979.2 in SW 40.2 mph 66.0 mph 75 % 0.0 in
14:52 8.9 °F 4.9 °F 979.2 in SW 51.5 mph 57.9 mph 76 % 0.0 in
14:57 8.9 °F 4.7 °F 979.2 in SW 27.4 mph 51.5 mph 75 % 0.0 in
15:07 8.8 °F 4.6 °F 979.6 in SW 24.1 mph 61.1 mph 75 % 0.0 in
15:12 8.7 °F 4.9 °F 979.9 in WSW 22.5 mph 61.1 mph 77 % 0.0 in
15:17 8.6 °F 5.0 °F 980.2 in SW 19.3 mph 61.1 mph 78 % 0.0 in
15:22 8.6 °F 5.0 °F 980.2 in SW 46.7 mph 51.5 mph 78 % 0.0 in
15:27 8.4 °F 5.2 °F 980.9 in WSW 40.2 mph 51.5 mph 80 % 0.0 in
15:32 7.2 °F 4.8 °F 980.9 in SW 19.3 mph 70.8 mph 85 % 0.3 in
15:37 6.9 °F 4.6 °F 980.9 in West 19.3 mph 70.8 mph 85 % 0.5 in
15:42 6.9 °F 4.2 °F 980.9 in West 20.9 mph 70.8 mph 83 % 0.5 in
15:47 6.9 °F 4.0 °F 980.9 in WNW 32.2 mph 49.9 mph 82 % 0.5 in
15:52 7.0 °F 3.8 °F 980.9 in WSW 46.7 mph 54.7 mph 80 % 0.5 in
16:02 7.2 °F 3.6 °F 981.3 in West 25.7 mph 59.5 mph 78 % 0.5 in
16:07 7.2 °F 2.9 °F 981.3 in WSW 29.0 mph 67.6 mph 74 % 0.5 in
16:12 7.1 °F 2.8 °F 981.6 in SW 17.7 mph 67.6 mph 74 % 0.5 in
16:17 7.1 °F 3.0 °F 981.6 in WSW 40.2 mph 67.6 mph 75 % 0.5 in
16:22 6.9 °F 3.0 °F 981.9 in SW 25.7 mph 61.1 mph 76 % 0.5 in
16:27 6.9 °F 3.1 °F 981.9 in SW 14.5 mph 48.3 mph 77 % 0.5 in
16:32 6.9 °F 3.1 °F 982.3 in West 16.1 mph 51.5 mph 77 % 0.0 in
16:37 6.8 °F 3.2 °F 982.6 in WSW 40.2 mph 53.1 mph 78 % 0.0 in
16:42 6.8 °F 3.2 °F 982.6 in SW 20.9 mph 53.1 mph 78 % 0.0 in
16:47 6.8 °F 3.2 °F 982.6 in SW 20.9 mph 51.5 mph 78 % 0.0 in
16:52 6.8 °F 3.2 °F 983.0 in WSW 20.9 mph 51.5 mph 78 % 0.0 in
16:57 6.8 °F 3.1 °F 983.0 in West 30.6 mph 49.9 mph 77 % 0.0 in
17:02 6.7 °F 3.0 °F 983.0 in West 38.6 mph 53.1 mph 77 % 0.0 in
17:07 6.6 °F 2.7 °F 983.3 in WSW 24.1 mph 53.1 mph 76 % 0.0 in
17:12 6.6 °F 2.7 °F 983.6 in SSW 16.1 mph 46.7 mph 76 % 0.0 in
17:22 6.4 °F 3.0 °F 984.0 in WSW 14.5 mph 53.1 mph 79 % 0.0 in
17:42 5.9 °F 3.2 °F 984.6 in West 14.5 mph 45.1 mph 83 % 0.0 in
17:47 5.9 °F 3.2 °F 985.0 in SW 8.0 mph 45.1 mph 83 % 0.0 in
17:52 5.9 °F 3.1 °F 985.3 in West 16.1 mph 45.1 mph 82 % 0.0 in
17:57 6.1 °F 2.6 °F 985.3 in WSW 29.0 mph 33.8 mph 78 % 0.0 in
18:02 6.1 °F 2.4 °F 985.3 in WSW 29.0 mph 53.1 mph 77 % 0.3 in
18:12 6.1 °F 2.2 °F 986.0 in WSW 20.9 mph 45.1 mph 76 % 0.3 in
18:17 6.0 °F 1.9 °F 986.0 in WNW 24.1 mph 45.1 mph 75 % 0.3 in
18:22 5.9 °F 2.0 °F 986.3 in West 17.7 mph 46.7 mph 76 % 0.3 in
18:27 5.9 °F 2.0 °F 986.3 in WSW 20.9 mph 46.7 mph 76 % 0.3 in
18:32 5.8 °F 2.1 °F 986.7 in WNW 25.7 mph 46.7 mph 77 % 0.3 in
18:42 5.6 °F 1.9 °F 987.0 in WSW 16.1 mph 46.7 mph 77 % 0.3 in
18:47 5.6 °F 1.7 °F 987.0 in West 25.7 mph 46.7 mph 76 % 0.3 in
18:57 5.3 °F 1.6 °F 987.7 in WNW 19.3 mph 41.8 mph 77 % 0.3 in
19:02 5.2 °F 1.5 °F 987.7 in WNW 24.1 mph 48.3 mph 77 % 0.0 in
19:07 5.1 °F 1.6 °F 988.0 in WNW 16.1 mph 48.3 mph 78 % 0.0 in
19:12 5.1 °F 1.2 °F 988.0 in WNW 32.2 mph 45.1 mph 76 % 0.0 in
19:17 5.0 °F 1.3 °F 988.4 in West 12.9 mph 43.4 mph 77 % 0.0 in
19:22 4.9 °F 1.4 °F 988.7 in WSW 24.1 mph 43.4 mph 78 % 0.0 in
19:27 4.9 °F 1.4 °F 988.7 in WSW 12.9 mph 33.8 mph 78 % 0.0 in
19:32 4.8 °F 1.3 °F 989.1 in West 17.7 mph 40.2 mph 78 % 0.0 in
19:37 4.7 °F 1.4 °F 989.1 in West 12.9 mph 40.2 mph 79 % 0.0 in
19:42 4.7 °F 1.4 °F 989.4 in West 22.5 mph 29.0 mph 79 % 0.0 in
19:47 4.5 °F 1.4 °F 989.7 in West 20.9 mph 40.2 mph 80 % 0.0 in
19:57 4.5 °F 1.4 °F 990.1 in WNW 12.9 mph 40.2 mph 80 % 0.0 in
20:07 4.3 °F 1.2 °F 990.4 in West 17.7 mph 32.2 mph 80 % 0.0 in
20:12 4.3 °F 1.0 °F 990.7 in West 16.1 mph 32.2 mph 79 % 0.0 in
20:17 4.3 °F 0.8 °F 991.1 in WSW 19.3 mph 32.2 mph 78 % 0.0 in
20:22 4.3 °F 0.6 °F 991.4 in WNW 16.1 mph 41.8 mph 77 % 0.0 in
20:27 4.4 °F 0.5 °F 991.8 in WNW 22.5 mph 41.8 mph 76 % 0.0 in
20:32 4.3 °F 0.3 °F 991.8 in West 14.5 mph 40.2 mph 75 % 0.0 in
20:37 4.3 °F 0.3 °F 992.1 in West 20.9 mph 40.2 mph 75 % 0.0 in
20:42 4.2 °F 0.0 °F 992.1 in West 24.1 mph 35.4 mph 74 % 0.0 in
20:47 4.2 °F -0.2 °F 992.4 in West 19.3 mph 35.4 mph 73 % 0.0 in
20:52 4.2 °F -0.2 °F 992.8 in North 24.1 mph 35.4 mph 73 % 0.0 in
20:57 4.2 °F 0.0 °F 992.8 in WNW 35.4 mph 35.4 mph 74 % 0.0 in
21:02 4.2 °F 0.2 °F 993.1 in WNW 25.7 mph 35.4 mph 75 % 0.0 in
21:17 4.2 °F 0.3 °F 993.8 in NNW 14.5 mph 38.6 mph 76 % 0.0 in
21:22 4.2 °F 0.5 °F 994.1 in West 11.3 mph 38.6 mph 77 % 0.0 in
21:32 4.2 °F 0.5 °F 994.5 in WNW 16.1 mph 25.7 mph 77 % 0.0 in
21:42 4.2 °F 0.3 °F 994.5 in NW 6.4 mph 30.6 mph 76 % 0.0 in
21:57 4.2 °F 0.5 °F 995.1 in WNW 11.3 mph 19.3 mph 77 % 0.0 in
22:02 4.2 °F 0.5 °F 995.5 in WNW 16.1 mph 25.7 mph 77 % 0.0 in
22:07 4.2 °F 0.5 °F 995.8 in West 6.4 mph 25.7 mph 77 % 0.0 in
22:17 4.2 °F 0.5 °F 996.2 in West 9.7 mph 20.9 mph 77 % 0.0 in
22:22 4.2 °F 0.3 °F 996.2 in WSW 4.8 mph 19.3 mph 76 % 0.0 in
22:32 4.1 °F 0.6 °F 996.8 in West 8.0 mph 22.5 mph 78 % 0.0 in
22:37 4.1 °F 0.6 °F 996.8 in WNW 9.7 mph 20.9 mph 78 % 0.0 in
22:42 4.1 °F 0.8 °F 997.2 in West 6.4 mph 17.7 mph 79 % 0.0 in
22:47 4.0 °F 0.9 °F 997.2 in WNW 4.8 mph 17.7 mph 80 % 0.0 in
23:02 3.7 °F 0.9 °F 997.9 in WNW 3.2 mph 16.1 mph 82 % 0.0 in
23:12 3.7 °F 1.1 °F 998.2 in West 3.2 mph 16.1 mph 83 % 0.0 in
23:22 3.6 °F 1.2 °F 998.5 in West 8.0 mph 16.1 mph 84 % 0.0 in
23:32 3.7 °F 1.2 °F 998.9 in West 11.3 mph 12.9 mph 84 % 0.0 in
23:42 3.6 °F 1.3 °F 999.2 in WNW 1.6 mph 16.1 mph 85 % 0.0 in
23:47 3.6 °F 1.3 °F 999.5 in WNW 16.1 mph 16.1 mph 85 % 0.0 in
23:52 3.6 °F 1.5 °F 999.5 in WNW 4.8 mph 17.7 mph 86 % 0.0 in
23:57 3.5 °F 1.4 °F 999.5 in West 3.2 mph 17.7 mph 86 % 0.0 in
Meteo18
Compliments of Weather Underground - 4 mb

Script developed by  Jim McMurry - jmcmurry@mwt.net Adapted for the template by  Wim van der Kuil - Leuven-Template.eu

You find our weather info also at:

European Weather Network

Weather Underground

Equipment we use:

Weather-station
Davis Vue

Weather-program
Meteobridge

Weather-server
Raspberry PI 2 B+

Provider
1 and 1

Davis Vue

Meteobridge

Raspberry PI 2 B+

1 and 1